createdAt,value
2022-08-24T00:02:12.387Z,100.00
2022-08-24T00:04:38.932Z,100.00
2022-08-24T00:07:21.475Z,100.00
2022-08-24T00:09:54.077Z,100.00
2022-08-24T00:12:20.542Z,100.00
2022-08-24T00:14:47.009Z,100.00
2022-08-24T00:17:15.887Z,100.00
2022-08-24T00:19:42.513Z,100.00
2022-08-24T00:22:10.069Z,100.00
2022-08-24T00:24:36.589Z,100.00
2022-08-24T00:27:03.139Z,100.00
2022-08-24T00:29:29.756Z,100.00
2022-08-24T00:31:56.249Z,100.00
2022-08-24T00:34:22.783Z,100.00
2022-08-24T00:36:49.203Z,100.00
2022-08-24T00:39:15.672Z,100.00
2022-08-24T00:41:43.129Z,100.00
2022-08-24T00:44:10.336Z,100.00
2022-08-24T00:46:49.680Z,100.00
2022-08-24T00:49:25.552Z,100.00
2022-08-24T00:51:57.047Z,100.00
2022-08-24T00:54:23.659Z,100.00
2022-08-24T00:56:51.644Z,100.00
2022-08-24T00:59:20.029Z,100.00
2022-08-24T01:01:47.476Z,100.00
2022-08-24T01:04:16.693Z,100.00
2022-08-24T01:06:43.138Z,100.00
2022-08-24T01:09:09.611Z,100.00
2022-08-24T01:11:36.859Z,100.00
2022-08-24T01:14:03.745Z,100.00
2022-08-24T01:16:49.016Z,100.00
2022-08-24T01:19:24.934Z,100.00
2022-08-24T01:21:54.883Z,100.00
2022-08-24T01:24:21.359Z,100.00
2022-08-24T01:26:49.253Z,100.00
2022-08-24T01:29:20.223Z,100.00
2022-08-24T01:31:50.346Z,100.00
2022-08-24T01:34:16.883Z,100.00
2022-08-24T01:36:51.380Z,100.00
2022-08-24T01:39:21.156Z,100.00
2022-08-24T01:41:47.990Z,100.00
2022-08-24T01:44:14.746Z,100.00
2022-08-24T01:46:45.022Z,100.00
2022-08-24T01:49:12.076Z,100.00
2022-08-24T01:51:38.608Z,100.00
2022-08-24T01:54:05.783Z,100.00
2022-08-24T01:56:33.070Z,100.00
2022-08-24T01:58:59.995Z,100.00
2022-08-24T02:01:27.041Z,100.00
2022-08-24T02:03:53.516Z,100.00
2022-08-24T02:06:19.971Z,100.00
2022-08-24T02:08:46.409Z,100.00
2022-08-24T02:11:12.885Z,100.00
2022-08-24T02:13:39.798Z,100.00
2022-08-24T02:16:07.117Z,100.00
2022-08-24T02:18:34.278Z,100.00
2022-08-24T02:21:00.955Z,100.00
2022-08-24T02:23:28.764Z,100.00
2022-08-24T02:25:56.112Z,100.00
2022-08-24T02:28:22.579Z,100.00
2022-08-24T02:30:49.230Z,100.00
2022-08-24T02:33:15.720Z,100.00
2022-08-24T02:35:42.279Z,100.00
2022-08-24T02:38:09.994Z,100.00
2022-08-24T02:40:36.500Z,100.00
2022-08-24T02:43:03.203Z,100.00
2022-08-24T02:45:29.805Z,100.00
2022-08-24T02:47:56.296Z,100.00
2022-08-24T02:50:22.861Z,100.00
2022-08-24T02:52:49.286Z,100.00
2022-08-24T02:55:20.172Z,100.00
2022-08-24T02:57:47.905Z,100.00
2022-08-24T03:00:15.421Z,100.00
2022-08-24T03:02:41.894Z,100.00
2022-08-24T03:05:08.972Z,100.00
2022-08-24T03:07:35.446Z,100.00
2022-08-24T03:10:02.075Z,100.00
2022-08-24T03:12:28.500Z,100.00
2022-08-24T03:14:55.433Z,100.00
2022-08-24T03:17:23.438Z,100.00
2022-08-24T03:19:50.469Z,100.00
2022-08-24T03:22:17.222Z,100.00
2022-08-24T03:24:45.117Z,100.00
2022-08-24T03:27:14.107Z,100.00
2022-08-24T03:29:40.919Z,100.00
2022-08-24T03:32:08.191Z,100.00
2022-08-24T03:34:34.720Z,100.00
2022-08-24T03:37:01.163Z,100.00
2022-08-24T03:39:27.640Z,100.00
2022-08-24T03:41:54.062Z,100.00
2022-08-24T03:44:23.212Z,100.00
2022-08-24T03:46:49.832Z,100.00
2022-08-24T03:49:16.303Z,100.00
2022-08-24T03:51:42.762Z,100.00
2022-08-24T03:54:09.536Z,100.00
2022-08-24T03:56:36.053Z,100.00
2022-08-24T03:59:02.502Z,100.00
2022-08-24T04:01:28.997Z,100.00
2022-08-24T04:03:55.810Z,100.00
2022-08-24T04:06:22.724Z,100.00
2022-08-24T04:08:49.237Z,100.00
2022-08-24T04:11:17.890Z,100.00
2022-08-24T04:13:44.540Z,100.00
2022-08-24T04:16:12.963Z,100.00
2022-08-24T04:18:39.800Z,100.00
2022-08-24T04:21:06.435Z,100.00
2022-08-24T04:23:47.293Z,100.00
2022-08-24T04:26:14.801Z,100.00
2022-08-24T04:28:41.384Z,100.00
2022-08-24T04:31:08.025Z,100.00
2022-08-24T04:33:34.502Z,100.00
2022-08-24T04:36:01.021Z,100.00
2022-08-24T04:38:27.452Z,100.00
2022-08-24T04:40:54.062Z,100.00
2022-08-24T04:43:20.470Z,100.00
2022-08-24T04:45:48.070Z,100.00
2022-08-24T04:48:14.685Z,100.00
2022-08-24T04:50:41.817Z,100.00
2022-08-24T04:53:08.629Z,100.00
2022-08-24T04:55:41.044Z,100.00
2022-08-24T04:58:07.472Z,100.00
2022-08-24T05:00:33.945Z,100.00
2022-08-24T05:03:00.486Z,100.00
2022-08-24T05:05:27.003Z,100.00
2022-08-24T05:07:56.446Z,100.00
2022-08-24T05:10:23.362Z,100.00
2022-08-24T05:12:49.771Z,100.00
2022-08-24T05:15:16.414Z,100.00
2022-08-24T05:17:50.346Z,100.00
2022-08-24T05:20:17.947Z,100.00
2022-08-24T05:22:45.021Z,100.00
2022-08-24T05:25:11.490Z,100.00
2022-08-24T05:27:37.953Z,100.00
2022-08-24T05:30:04.979Z,100.00
2022-08-24T05:32:31.457Z,100.00
2022-08-24T05:34:59.695Z,100.00
2022-08-24T05:37:26.638Z,100.00
2022-08-24T05:39:53.154Z,100.00
2022-08-24T05:42:19.828Z,100.00
2022-08-24T05:44:46.319Z,100.00
2022-08-24T05:47:13.579Z,100.00
2022-08-24T05:49:41.703Z,100.00
2022-08-24T05:52:08.867Z,100.00
2022-08-24T05:54:35.480Z,100.00
2022-08-24T05:57:05.064Z,100.00
2022-08-24T05:59:31.923Z,100.00
2022-08-24T06:01:58.554Z,100.00
2022-08-24T06:04:25.835Z,100.00
2022-08-24T06:06:52.880Z,100.00
2022-08-24T06:09:19.358Z,100.00
2022-08-24T06:11:46.910Z,100.00
2022-08-24T06:14:14.427Z,100.00
2022-08-24T06:16:41.783Z,100.00
2022-08-24T06:19:09.384Z,100.00
2022-08-24T06:21:36.242Z,100.00
2022-08-24T06:24:02.758Z,100.00
2022-08-24T06:26:50.106Z,100.00
2022-08-24T06:29:17.357Z,100.00
2022-08-24T06:31:44.542Z,96.06
2022-08-24T06:34:14.041Z,93.93
2022-08-24T06:36:40.618Z,92.47
2022-08-24T06:39:07.854Z,93.04
2022-08-24T06:41:37.046Z,89.50
2022-08-24T06:44:03.477Z,89.36
2022-08-24T06:46:32.884Z,86.61
2022-08-24T06:48:59.764Z,84.80
2022-08-24T06:51:26.236Z,78.64
2022-08-24T06:53:54.524Z,75.43
2022-08-24T06:56:20.972Z,73.39
2022-08-24T06:58:47.971Z,72.76
2022-08-24T07:01:15.888Z,73.60
2022-08-24T07:03:42.615Z,71.69
2022-08-24T07:06:09.345Z,69.18
2022-08-24T07:08:36.256Z,69.85
2022-08-24T07:11:03.089Z,67.64
2022-08-24T07:13:31.158Z,65.62
2022-08-24T07:15:57.883Z,64.47
2022-08-24T07:18:24.822Z,62.74
2022-08-24T07:20:53.466Z,61.09
2022-08-24T07:23:20.247Z,60.25
2022-08-24T07:25:49.703Z,59.73
2022-08-24T07:28:17.021Z,59.56
2022-08-24T07:30:54.083Z,56.44
2022-08-24T07:33:20.561Z,55.73
2022-08-24T07:35:47.221Z,56.07
2022-08-24T07:38:13.756Z,55.23
2022-08-24T07:41:05.158Z,53.38
2022-08-24T07:43:26.690Z,52.46
2022-08-24T07:45:53.212Z,53.63
2022-08-24T07:48:19.655Z,52.19
2022-08-24T07:50:46.479Z,50.38
2022-08-24T07:53:15.149Z,50.29
2022-08-24T07:55:52.079Z,49.48
2022-08-24T07:58:18.847Z,48.14
2022-08-24T08:00:48.525Z,48.92
2022-08-24T08:03:15.014Z,48.72
2022-08-24T08:05:41.655Z,48.09
2022-08-24T08:08:08.143Z,48.16
2022-08-24T08:10:36.214Z,47.13
2022-08-24T08:13:03.541Z,47.56
2022-08-24T08:15:31.121Z,45.86
2022-08-24T08:17:57.967Z,45.15
2022-08-24T08:20:24.539Z,44.72
2022-08-24T08:23:09.739Z,44.80
2022-08-24T08:25:38.376Z,45.37
2022-08-24T08:28:18.455Z,43.96
2022-08-24T08:30:53.676Z,43.65
2022-08-24T08:33:20.392Z,42.90
2022-08-24T08:35:47.092Z,43.10
2022-08-24T08:38:13.567Z,41.68
2022-08-24T08:40:55.421Z,42.18
2022-08-24T08:43:42.535Z,42.14
2022-08-24T08:46:13.437Z,41.78
2022-08-24T08:48:42.868Z,41.38
2022-08-24T08:51:28.308Z,42.23
2022-08-24T08:54:07.114Z,42.92
2022-08-24T08:56:45.866Z,40.83
2022-08-24T08:59:31.041Z,40.76
2022-08-24T09:02:07.413Z,40.91
2022-08-24T09:04:50.654Z,39.36
2022-08-24T09:07:20.236Z,39.02
2022-08-24T09:10:05.088Z,40.22
2022-08-24T09:12:36.065Z,37.67
2022-08-24T09:15:38.035Z,39.30
2022-08-24T09:18:11.078Z,38.31
2022-08-24T09:20:41.411Z,37.23
2022-08-24T09:23:40.696Z,37.99
2022-08-24T09:26:19.090Z,35.99
2022-08-24T09:29:02.080Z,37.12
2022-08-24T09:34:07.930Z,35.31
2022-08-24T09:36:46.761Z,35.11
2022-08-24T09:39:14.421Z,35.20
2022-08-24T09:41:59.182Z,34.17
2022-08-24T09:44:58.449Z,33.53
2022-08-24T09:47:44.204Z,32.61
2022-08-24T09:50:13.671Z,30.67
2022-08-24T09:52:47.395Z,28.34
2022-08-24T09:55:32.263Z,27.31
2022-08-24T09:58:07.967Z,25.85
2022-08-24T10:00:38.074Z,25.69
2022-08-24T10:03:35.008Z,24.79
2022-08-24T10:06:16.723Z,25.38
2022-08-24T10:08:53.785Z,25.22
2022-08-24T10:11:33.182Z,24.08
2022-08-24T10:14:08.742Z,23.32
2022-08-24T10:16:41.257Z,24.42
2022-08-24T10:19:12.875Z,24.09
2022-08-24T10:21:58.015Z,23.83
2022-08-24T10:24:27.916Z,22.25
2022-08-24T10:27:05.555Z,22.90
2022-08-24T10:29:31.990Z,22.03
2022-08-24T10:32:17.161Z,21.28
2022-08-24T10:34:46.725Z,20.21
2022-08-24T10:37:19.237Z,19.48
2022-08-24T10:40:02.804Z,19.78
2022-08-24T10:43:08.598Z,21.29
2022-08-24T10:45:41.625Z,19.42
2022-08-24T10:48:08.095Z,18.12
2022-08-24T10:50:54.832Z,17.58
2022-08-24T10:53:21.528Z,16.62
2022-08-24T10:55:50.738Z,18.68
2022-08-24T10:58:26.531Z,17.67
2022-08-24T11:00:53.183Z,16.73
2022-08-24T11:03:28.666Z,15.81
2022-08-24T11:05:55.825Z,17.83
2022-08-24T11:08:23.584Z,17.63
2022-08-24T11:11:06.813Z,17.98
2022-08-24T11:13:33.444Z,16.59
2022-08-24T11:16:01.203Z,17.61
2022-08-24T11:18:57.310Z,17.48
2022-08-24T11:21:33.170Z,16.44
2022-08-24T11:24:25.834Z,15.56
2022-08-24T11:26:58.567Z,14.04
2022-08-24T11:29:31.381Z,13.83
2022-08-24T11:31:58.991Z,14.25
2022-08-24T11:34:34.112Z,15.06
2022-08-24T11:37:00.593Z,15.57
2022-08-24T11:39:37.076Z,14.61
2022-08-24T11:42:07.859Z,14.46
2022-08-24T11:44:37.359Z,12.77
2022-08-24T11:47:08.868Z,12.63
2022-08-24T11:49:35.416Z,11.68
2022-08-24T11:52:11.014Z,13.13
2022-08-24T11:54:55.851Z,12.45
2022-08-24T11:57:26.656Z,12.56
2022-08-24T11:59:53.145Z,13.23
2022-08-24T12:02:38.591Z,13.98
2022-08-24T12:05:07.284Z,12.67
2022-08-24T12:07:51.766Z,11.82
2022-08-24T12:10:37.266Z,10.89
2022-08-24T12:13:09.335Z,10.51
2022-08-24T12:15:35.809Z,10.81
2022-08-24T12:18:24.807Z,10.76
2022-08-24T12:20:51.797Z,10.54
2022-08-24T12:23:30.949Z,10.28
2022-08-24T12:26:02.857Z,10.41
2022-08-24T12:28:32.097Z,10.57
2022-08-24T12:30:59.881Z,10.39
2022-08-24T12:33:28.248Z,11.34
2022-08-24T12:35:55.805Z,13.55
2022-08-24T12:38:28.514Z,15.30
2022-08-24T12:40:54.922Z,15.35
2022-08-24T12:43:23.743Z,15.23
2022-08-24T12:45:50.253Z,13.64
2022-08-24T12:48:17.415Z,12.00
2022-08-24T12:50:52.746Z,10.02
2022-08-24T12:53:38.025Z,8.98
2022-08-24T12:56:23.699Z,7.93
2022-08-24T12:58:54.551Z,8.10
2022-08-24T13:01:25.533Z,7.70
2022-08-24T13:04:03.313Z,8.51
2022-08-24T13:06:47.032Z,7.25
2022-08-24T13:09:36.947Z,7.69
2022-08-24T13:12:24.368Z,9.74
2022-08-24T13:14:57.472Z,11.50
2022-08-24T13:17:25.326Z,11.35
2022-08-24T13:20:11.723Z,11.75
2022-08-24T13:22:40.525Z,13.37
2022-08-24T13:25:24.043Z,15.41
2022-08-24T13:28:01.068Z,17.11
2022-08-24T13:30:29.482Z,17.88
2022-08-24T13:32:58.863Z,19.05
2022-08-24T13:35:53.623Z,18.66
2022-08-24T13:38:35.346Z,19.51
2022-08-24T13:41:07.835Z,20.74
2022-08-24T13:43:52.963Z,20.30
2022-08-24T13:46:33.051Z,20.48
2022-08-24T13:49:04.424Z,20.87
2022-08-24T13:51:52.306Z,21.45
2022-08-24T13:54:27.311Z,22.32
2022-08-24T13:57:08.396Z,22.10
2022-08-24T13:59:52.795Z,22.77
2022-08-24T14:02:44.613Z,23.35
2022-08-24T14:05:29.900Z,22.15
2022-08-24T14:07:59.302Z,22.57
2022-08-24T14:10:31.833Z,23.20
2022-08-24T14:13:04.350Z,23.70
2022-08-24T14:15:45.391Z,22.73
2022-08-24T14:18:14.907Z,22.65
2022-08-24T14:20:51.777Z,22.51
2022-08-24T14:23:18.224Z,23.91
2022-08-24T14:25:44.826Z,23.88
2022-08-24T14:28:30.044Z,23.65
2022-08-24T14:31:18.149Z,23.71
2022-08-24T14:33:51.143Z,24.52
2022-08-24T14:36:21.402Z,24.80
2022-08-24T14:39:04.583Z,24.46
2022-08-24T14:41:33.978Z,25.36
2022-08-24T14:44:20.712Z,24.96
2022-08-24T14:46:52.272Z,24.44
2022-08-24T14:49:18.793Z,24.73
2022-08-24T14:51:51.519Z,24.03
2022-08-24T14:54:17.973Z,23.49
2022-08-24T14:56:44.411Z,23.77
2022-08-24T14:59:29.600Z,23.65
2022-08-24T15:02:15.761Z,23.91
2022-08-24T15:04:46.611Z,24.73
2022-08-24T15:07:32.318Z,24.22
2022-08-24T15:10:00.363Z,24.67
2022-08-24T15:12:32.804Z,24.51
2022-08-24T15:15:05.298Z,24.12
2022-08-24T15:17:36.422Z,24.31
2022-08-24T15:20:07.559Z,23.67
2022-08-24T15:22:37.946Z,24.25
2022-08-24T15:25:07.073Z,23.29
2022-08-24T15:27:48.647Z,24.30
2022-08-24T15:30:23.613Z,24.62
2022-08-24T15:33:06.335Z,25.09
2022-08-24T15:35:34.399Z,27.37
2022-08-24T15:38:21.272Z,25.64
2022-08-24T15:41:06.188Z,26.01
2022-08-24T15:43:33.600Z,26.64
2022-08-24T15:46:00.098Z,26.28
2022-08-24T15:48:26.623Z,27.18
2022-08-24T15:50:53.687Z,26.97
2022-08-24T15:53:40.143Z,27.12
2022-08-24T15:56:21.984Z,26.51
2022-08-24T15:58:48.686Z,25.95
2022-08-24T16:01:33.948Z,26.20
2022-08-24T16:04:03.538Z,25.33
2022-08-24T16:06:33.027Z,25.70
2022-08-24T16:09:01.358Z,25.86
2022-08-24T16:11:48.005Z,26.59
2022-08-24T16:14:25.317Z,25.63
2022-08-24T16:16:54.542Z,26.19
2022-08-24T16:19:25.486Z,26.64
2022-08-24T16:21:54.614Z,27.25
2022-08-24T16:24:21.236Z,27.00
2022-08-24T16:26:47.661Z,26.73
2022-08-24T16:29:32.883Z,26.79
2022-08-24T16:32:09.281Z,26.26
2022-08-24T16:34:37.130Z,26.37
2022-08-24T16:37:04.112Z,26.66
2022-08-24T16:39:30.756Z,27.94
2022-08-24T16:41:58.661Z,28.18
2022-08-24T16:44:28.065Z,27.94
2022-08-24T16:46:54.472Z,28.24
2022-08-24T16:49:20.919Z,27.98
2022-08-24T16:51:47.417Z,27.96
2022-08-24T16:54:13.923Z,27.95
2022-08-24T16:56:40.734Z,28.41
2022-08-24T16:59:07.152Z,28.47
2022-08-24T17:01:33.743Z,29.67
2022-08-24T17:04:00.361Z,29.37
2022-08-24T17:06:26.826Z,29.61
2022-08-24T17:08:53.659Z,30.13
2022-08-24T17:11:20.134Z,30.47
2022-08-24T17:13:50.358Z,30.46
2022-08-24T17:16:17.342Z,30.93
2022-08-24T17:18:43.870Z,30.90
2022-08-24T17:21:10.343Z,30.93
2022-08-24T17:23:36.806Z,31.36
2022-08-24T17:26:03.736Z,31.43
2022-08-24T17:28:30.510Z,31.74
2022-08-24T17:30:57.012Z,31.88
2022-08-24T17:33:23.645Z,32.08
2022-08-24T17:35:50.702Z,32.20
2022-08-24T17:38:17.123Z,32.25
2022-08-24T17:40:43.569Z,32.88
2022-08-24T17:43:10.580Z,32.98
2022-08-24T17:45:37.234Z,33.22
2022-08-24T17:48:03.818Z,33.31
2022-08-24T17:50:30.371Z,33.36
2022-08-24T17:53:00.230Z,33.45
2022-08-24T17:55:27.088Z,34.00
2022-08-24T17:57:53.653Z,34.33
2022-08-24T18:00:20.122Z,34.88
2022-08-24T18:02:46.612Z,36.45
2022-08-24T18:05:15.016Z,37.28
2022-08-24T18:07:53.060Z,38.11
2022-08-24T18:10:21.029Z,38.95
2022-08-24T18:12:47.678Z,39.55
2022-08-24T18:15:14.115Z,40.68
2022-08-24T18:17:41.825Z,40.60
2022-08-24T18:20:08.980Z,41.43
2022-08-24T18:22:35.606Z,41.75
2022-08-24T18:25:02.170Z,41.94
2022-08-24T18:27:29.259Z,42.47
2022-08-24T18:30:01.317Z,42.73
2022-08-24T18:32:31.134Z,43.01
2022-08-24T18:34:57.847Z,43.14
2022-08-24T18:37:24.333Z,43.52
2022-08-24T18:39:51.077Z,43.92
2022-08-24T18:42:17.521Z,44.49
2022-08-24T18:44:43.992Z,44.60
2022-08-24T18:47:10.511Z,45.27
2022-08-24T18:49:37.579Z,45.57
2022-08-24T18:52:04.285Z,45.94
2022-08-24T18:54:35.628Z,46.11
2022-08-24T18:57:02.361Z,46.45
2022-08-24T18:59:28.823Z,47.08
2022-08-24T19:02:21.634Z,46.96
2022-08-24T19:04:48.150Z,47.69
2022-08-24T19:07:14.952Z,48.22
2022-08-24T19:09:41.386Z,48.53
2022-08-24T19:12:08.579Z,49.31
2022-08-24T19:14:35.234Z,49.50
2022-08-24T19:17:01.693Z,49.57
2022-08-24T19:19:28.170Z,50.05
2022-08-24T19:21:54.635Z,50.27
2022-08-24T19:24:22.597Z,50.60
2022-08-24T19:26:49.013Z,50.96
2022-08-24T19:29:21.469Z,51.24
2022-08-24T19:31:59.879Z,52.85
2022-08-24T19:34:26.410Z,53.57
2022-08-24T19:36:56.149Z,53.59
2022-08-24T19:39:22.884Z,54.34
2022-08-24T19:41:58.327Z,55.07
2022-08-24T19:44:47.726Z,56.05
2022-08-24T19:47:18.375Z,57.05
2022-08-24T19:49:45.660Z,56.37
2022-08-24T19:52:12.150Z,57.27
2022-08-24T19:54:42.102Z,58.38
2022-08-24T19:57:27.407Z,58.61
2022-08-24T19:59:53.845Z,58.62
2022-08-24T20:02:20.327Z,60.04
2022-08-24T20:04:46.803Z,61.10
2022-08-24T20:07:14.639Z,61.78
2022-08-24T20:09:41.038Z,61.31
2022-08-24T20:12:07.612Z,60.47
2022-08-24T20:14:37.329Z,59.67
2022-08-24T20:17:04.231Z,59.57
2022-08-24T20:19:31.423Z,59.51
2022-08-24T20:21:57.930Z,58.94
2022-08-24T20:24:27.455Z,59.15
2022-08-24T20:26:53.913Z,59.20
2022-08-24T20:29:20.885Z,58.84
2022-08-24T20:31:48.534Z,58.53
2022-08-24T20:34:17.170Z,59.05
2022-08-24T20:36:45.025Z,59.19
2022-08-24T20:39:11.921Z,59.52
2022-08-24T20:41:39.069Z,59.24
2022-08-24T20:44:05.490Z,59.30
2022-08-24T20:46:32.162Z,59.39
2022-08-24T20:48:59.030Z,59.58
2022-08-24T20:51:25.671Z,60.63
2022-08-24T20:53:52.106Z,59.83
2022-08-24T20:56:28.719Z,60.06
2022-08-24T20:58:57.883Z,60.32
2022-08-24T21:01:24.890Z,60.65
2022-08-24T21:03:51.747Z,60.95
2022-08-24T21:06:18.300Z,61.26
2022-08-24T21:08:45.116Z,63.98
2022-08-24T21:11:11.639Z,64.80
2022-08-24T21:13:38.045Z,65.52
2022-08-24T21:16:05.902Z,67.13
2022-08-24T21:18:33.096Z,68.68
2022-08-24T21:21:03.797Z,72.28
2022-08-24T21:23:31.621Z,72.78
2022-08-24T21:25:58.589Z,72.86
2022-08-24T21:28:25.017Z,77.62
2022-08-24T21:30:51.424Z,82.22
2022-08-24T21:33:36.605Z,78.65
2022-08-24T21:36:03.235Z,79.51
2022-08-24T21:38:31.337Z,79.34
2022-08-24T21:40:59.882Z,79.29
2022-08-24T21:43:26.373Z,78.18
2022-08-24T21:45:52.792Z,77.67
2022-08-24T21:48:19.402Z,77.95
2022-08-24T21:50:45.865Z,77.46
2022-08-24T21:53:12.314Z,77.45
2022-08-24T21:55:41.301Z,77.99
2022-08-24T21:58:08.149Z,79.02
2022-08-24T22:00:35.659Z,81.75
2022-08-24T22:03:03.530Z,79.01
2022-08-24T22:05:30.530Z,77.67
2022-08-24T22:07:57.178Z,77.42
2022-08-24T22:10:23.793Z,80.70
2022-08-24T22:12:51.078Z,81.20
2022-08-24T22:15:18.622Z,82.22
2022-08-24T22:17:52.607Z,83.27
2022-08-24T22:20:21.647Z,83.58
2022-08-24T22:22:49.942Z,84.02
2022-08-24T22:25:16.379Z,82.81
2022-08-24T22:27:43.198Z,83.22
2022-08-24T22:30:10.528Z,82.42
2022-08-24T22:32:36.987Z,84.21
2022-08-24T22:35:03.570Z,84.62
2022-08-24T22:37:30.029Z,83.31
2022-08-24T22:39:56.575Z,83.02
2022-08-24T22:42:23.055Z,82.38
2022-08-24T22:44:49.566Z,82.91
2022-08-24T22:47:16.155Z,80.75
2022-08-24T22:49:45.561Z,83.01
2022-08-24T22:52:13.012Z,83.35
2022-08-24T22:54:39.938Z,83.72
2022-08-24T22:57:06.358Z,82.41
2022-08-24T22:59:35.692Z,81.56
2022-08-24T23:02:03.432Z,81.89
2022-08-24T23:04:32.113Z,82.09
2022-08-24T23:06:58.753Z,81.54
2022-08-24T23:09:25.218Z,80.97
2022-08-24T23:11:54.555Z,80.83
2022-08-24T23:14:21.248Z,79.57
2022-08-24T23:16:48.682Z,79.11
2022-08-24T23:19:35.362Z,82.43
2022-08-24T23:22:02.011Z,82.28
2022-08-24T23:24:29.558Z,81.52
2022-08-24T23:26:56.172Z,80.51
2022-08-24T23:29:22.652Z,80.14
2022-08-24T23:31:49.119Z,80.50
2022-08-24T23:34:15.891Z,81.78
2022-08-24T23:36:42.745Z,81.29
2022-08-24T23:39:09.467Z,81.61
2022-08-24T23:41:38.191Z,80.66
2022-08-24T23:44:05.985Z,80.77
2022-08-24T23:46:32.470Z,80.51
2022-08-24T23:49:03.291Z,80.98
2022-08-24T23:51:30.407Z,81.33
2022-08-24T23:53:57.127Z,82.26
2022-08-24T23:56:31.942Z,82.30
2022-08-24T23:58:59.459Z,82.66
